Time;durP1;ratioP1;P1;durP2;ratioP2;P2;SDS_P1;SDS_P2;PMS_P1;PMS_P2;Temp;Humidity;BMP_temperature;BMP_pressure;BME280_temperature;BME280_humidity;BME280_pressure;Samples;Min_cycle;Max_cycle;Signal;HPM_P1;HPM_P2
2022/03/05 00:00:32;;;;;;;21.40;12.17;;;;;;;;;;5097698;28;20419;-74
2022/03/05 00:02:58;;;;;;;17.37;11.57;;;;;;;;;;5116350;28;20411;-74
2022/03/05 00:05:24;;;;;;;14.93;9.90;;;;;;;;;;5115925;28;20454;-74
2022/03/05 00:07:50;;;;;;;16.47;10.90;;;;;;;;;;5116652;28;20408;-74
2022/03/05 00:10:18;;;;;;;13.93;10.37;;;;;;;;;;5115862;28;20523;-74
2022/03/05 00:12:44;;;;;;;17.70;11.00;;;;;;;;;;5116533;28;20466;-74
2022/03/05 00:15:10;;;;;;;13.57;9.73;;;;;;;;;;5115672;28;20941;-74
2022/03/05 00:17:36;;;;;;;11.77;9.40;;;;;;;;;;5115966;28;20448;-74
2022/03/05 00:20:03;;;;;;;14.40;10.20;;;;;;;;;;5116007;28;20488;-74
2022/03/05 00:22:29;;;;;;;14.20;10.23;;;;;;;;;;5115897;28;20415;-74
2022/03/05 00:24:55;;;;;;;14.30;9.60;;;;;;;;;;5116086;28;20424;-74
2022/03/05 00:27:21;;;;;;;16.30;11.33;;;;;;;;;;5115727;28;20502;-74
2022/03/05 00:29:47;;;;;;;15.40;10.90;;;;;;;;;;5115438;28;20506;-74
2022/03/05 00:32:13;;;;;;;15.40;10.10;;;;;;;;;;5115372;28;20415;-74
2022/03/05 00:34:38;;;;;;;15.90;10.20;;;;;;;;;;5115723;28;20420;-75
2022/03/05 00:37:05;;;;;;;18.23;10.83;;;;;;;;;;5115700;28;20418;-75
2022/03/05 00:39:31;;;;;;;14.97;10.73;;;;;;;;;;5115598;28;20431;-74
2022/03/05 00:41:58;;;;;;;17.27;10.67;;;;;;;;;;5115351;28;20412;-74
2022/03/05 00:44:24;;;;;;;16.53;10.33;;;;;;;;;;5115189;28;20483;-74
2022/03/05 00:46:50;;;;;;;18.58;12.27;;;;;;;;;;5114648;28;20386;-74
2022/03/05 00:49:16;;;;;;;24.83;12.17;;;;;;;;;;5096819;28;20643;-74
2022/03/05 00:51:42;;;;;;;20.20;12.03;;;;;;;;;;5114107;28;20443;-74
2022/03/05 00:54:08;;;;;;;16.20;11.40;;;;;;;;;;5115627;28;20411;-75
2022/03/05 00:56:34;;;;;;;22.03;12.03;;;;;;;;;;5114865;28;20423;-74
2022/03/05 00:59:00;;;;;;;22.30;11.70;;;;;;;;;;5114903;28;20419;-75
2022/03/05 01:01:26;;;;;;;15.80;12.33;;;;;;;;;;5115393;28;20503;-74
2022/03/05 01:03:53;;;;;;;19.07;11.93;;;;;;;;;;5114789;28;20418;-74
2022/03/05 01:06:19;;;;;;;20.50;11.67;;;;;;;;;;5114996;28;20424;-74
2022/03/05 01:08:44;;;;;;;16.67;12.00;;;;;;;;;;5114540;28;20440;-74
2022/03/05 01:11:15;;;;;;;22.80;12.07;;;;;;;;;;5114676;28;20477;-75
2022/03/05 01:13:41;;;;;;;19.10;12.07;;;;;;;;;;5114483;28;20413;-74
2022/03/05 01:16:07;;;;;;;18.03;12.57;;;;;;;;;;5114818;28;20917;-74
2022/03/05 01:18:33;;;;;;;14.20;10.43;;;;;;;;;;5096087;28;20458;-75
2022/03/05 01:20:59;;;;;;;14.50;10.80;;;;;;;;;;5114820;28;20825;-74
2022/03/05 01:23:25;;;;;;;16.10;10.60;;;;;;;;;;5114482;28;20416;-74
2022/03/05 01:25:51;;;;;;;18.03;12.27;;;;;;;;;;5114719;28;20438;-74
2022/03/05 01:28:17;;;;;;;19.53;10.87;;;;;;;;;;5114280;28;20504;-74
2022/03/05 01:30:43;;;;;;;19.40;12.60;;;;;;;;;;5095991;28;20558;-75
2022/03/05 01:33:09;;;;;;;18.60;10.97;;;;;;;;;;5114311;28;20407;-74
2022/03/05 01:35:35;;;;;;;18.97;10.67;;;;;;;;;;5114224;28;20507;-74
2022/03/05 01:38:01;;;;;;;16.70;10.53;;;;;;;;;;5114419;28;20508;-74
2022/03/05 01:40:27;;;;;;;23.23;12.13;;;;;;;;;;5114073;28;20434;-74
2022/03/05 01:42:53;;;;;;;15.13;10.37;;;;;;;;;;5114903;28;20415;-74
2022/03/05 01:45:19;;;;;;;17.10;11.50;;;;;;;;;;5114282;28;20419;-74
2022/03/05 01:47:45;;;;;;;16.17;12.10;;;;;;;;;;5113708;28;20491;-74
2022/03/05 01:50:12;;;;;;;21.90;10.70;;;;;;;;;;5114077;28;20467;-75
2022/03/05 01:52:38;;;;;;;17.47;10.90;;;;;;;;;;5113857;28;20768;-74
2022/03/05 01:55:04;;;;;;;16.10;10.87;;;;;;;;;;5113994;28;20461;-75
2022/03/05 01:57:30;;;;;;;17.33;10.73;;;;;;;;;;5113869;28;20461;-74
2022/03/05 01:59:56;;;;;;;17.07;11.90;;;;;;;;;;5113958;28;20420;-74
2022/03/05 02:02:22;;;;;;;19.87;11.37;;;;;;;;;;5113457;28;20412;-74
2022/03/05 02:04:48;;;;;;;17.13;11.43;;;;;;;;;;5114319;28;20840;-74
2022/03/05 02:07:14;;;;;;;14.03;10.47;;;;;;;;;;5113659;28;20846;-74
2022/03/05 02:09:40;;;;;;;15.93;11.40;;;;;;;;;;5113533;28;20506;-74
2022/03/05 02:12:07;;;;;;;14.83;10.93;;;;;;;;;;5114030;28;20408;-75
2022/03/05 02:14:32;;;;;;;19.07;12.07;;;;;;;;;;5114060;28;20427;-74
2022/03/05 02:16:58;;;;;;;20.00;13.17;;;;;;;;;;5113816;28;20441;-74
2022/03/05 02:19:24;;;;;;;18.90;14.80;;;;;;;;;;5113831;28;20913;-75
2022/03/05 02:21:50;;;;;;;24.70;14.77;;;;;;;;;;5113756;28;20419;-74
2022/03/05 02:24:31;;;;;;;19.90;12.90;;;;;;;;;;5113801;28;20411;-75
2022/03/05 02:26:58;;;;;;;17.83;13.40;;;;;;;;;;5113812;28;20391;-74
2022/03/05 02:29:24;;;;;;;22.23;13.40;;;;;;;;;;5113600;28;20470;-74
2022/03/05 02:31:50;;;;;;;38.33;12.77;;;;;;;;;;5113397;28;20472;-74
2022/03/05 02:34:16;;;;;;;20.30;12.43;;;;;;;;;;5113965;28;20800;-77
2022/03/05 02:36:42;;;;;;;27.47;13.00;;;;;;;;;;5113382;28;20811;-74
2022/03/05 02:39:08;;;;;;;18.07;12.43;;;;;;;;;;5113345;28;20412;-74
2022/03/05 02:41:35;;;;;;;19.23;13.57;;;;;;;;;;5113178;28;20411;-74
2022/03/05 02:44:01;;;;;;;17.00;11.27;;;;;;;;;;5113544;28;20427;-74
2022/03/05 02:46:28;;;;;;;19.93;12.70;;;;;;;;;;5113587;28;20412;-74
2022/03/05 02:48:54;;;;;;;25.23;12.83;;;;;;;;;;5112933;28;20506;-74
2022/03/05 02:51:20;;;;;;;19.17;12.20;;;;;;;;;;5113372;28;20411;-74
2022/03/05 02:53:47;;;;;;;16.87;11.43;;;;;;;;;;5113163;28;20770;-74
2022/03/05 02:56:13;;;;;;;16.47;11.70;;;;;;;;;;5113198;28;20412;-74
2022/03/05 02:58:39;;;;;;;15.67;11.50;;;;;;;;;;5113252;28;20420;-74
2022/03/05 03:01:05;;;;;;;17.80;11.43;;;;;;;;;;5113326;28;20415;-76
2022/03/05 03:03:31;;;;;;;17.60;11.57;;;;;;;;;;5113134;28;20416;-75
2022/03/05 03:05:57;;;;;;;40.50;22.80;;;;;;;;;;5113462;28;20404;-75
2022/03/05 03:08:23;;;;;;;17.83;12.07;;;;;;;;;;5112974;28;20468;-75
2022/03/05 03:10:49;;;;;;;18.67;12.57;;;;;;;;;;5113232;28;20467;-75
2022/03/05 03:13:15;;;;;;;19.80;12.37;;;;;;;;;;5113270;28;20787;-75
2022/03/05 03:15:41;;;;;;;14.93;11.73;;;;;;;;;;5115758;28;20514;-75
2022/03/05 03:18:07;;;;;;;14.40;10.67;;;;;;;;;;5098613;28;20899;-75
2022/03/05 03:20:33;;;;;;;14.90;11.20;;;;;;;;;;5117367;28;20890;-74
2022/03/05 03:22:59;;;;;;;19.37;12.07;;;;;;;;;;5116892;28;20556;-75
2022/03/05 03:25:25;;;;;;;20.43;13.37;;;;;;;;;;5116800;28;20443;-75
2022/03/05 03:27:51;;;;;;;22.57;13.10;;;;;;;;;;5116968;28;20423;-75
2022/03/05 03:30:17;;;;;;;21.63;11.00;;;;;;;;;;5116802;28;20471;-75
2022/03/05 03:32:44;;;;;;;13.77;10.70;;;;;;;;;;5116550;28;20506;-75
2022/03/05 03:35:12;;;;;;;14.90;11.33;;;;;;;;;;5116669;28;20421;-75
2022/03/05 03:37:38;;;;;;;15.40;12.10;;;;;;;;;;5116770;28;20408;-75
2022/03/05 03:40:05;;;;;;;15.73;11.30;;;;;;;;;;5116760;28;20414;-74
2022/03/05 03:45:35;;;;;;;13.30;11.27;;;;;;;;;;5116554;28;20394;-76
2022/03/05 03:48:01;;;;;;;13.40;11.07;;;;;;;;;;5116236;28;20554;-75
2022/03/05 03:50:26;;;;;;;15.90;10.20;;;;;;;;;;5116424;28;20466;-75
2022/03/05 03:52:54;;;;;;;18.90;11.70;;;;;;;;;;5116926;28;20535;-75
2022/03/05 03:55:21;;;;;;;13.50;11.07;;;;;;;;;;5116590;28;20502;-75
2022/03/05 03:57:47;;;;;;;14.67;10.90;;;;;;;;;;5116130;28;20426;-75
2022/03/05 04:00:15;;;;;;;19.83;11.50;;;;;;;;;;5097886;28;20420;-75
2022/03/05 04:02:41;;;;;;;18.23;10.70;;;;;;;;;;5116257;28;20419;-75
2022/03/05 04:05:07;;;;;;;18.17;11.77;;;;;;;;;;5116331;28;20415;-75
2022/03/05 04:10:18;;;;;;;15.80;12.17;;;;;;;;;;5116192;28;20882;-76
2022/03/05 04:12:44;;;;;;;15.13;11.10;;;;;;;;;;5115803;28;20912;-76
2022/03/05 04:15:11;;;;;;;14.83;11.03;;;;;;;;;;5097406;28;20427;-75
2022/03/05 04:17:37;;;;;;;19.10;12.63;;;;;;;;;;5115638;28;20411;-76
2022/03/05 04:20:03;;;;;;;22.13;13.60;;;;;;;;;;5115938;28;20411;-75
2022/03/05 04:22:30;;;;;;;15.80;10.50;;;;;;;;;;5115691;28;20406;-75
2022/03/05 04:24:56;;;;;;;15.20;11.03;;;;;;;;;;5115648;28;20455;-76
2022/03/05 04:27:22;;;;;;;15.00;11.00;;;;;;;;;;5115422;28;20816;-76
2022/03/05 04:29:47;;;;;;;14.50;10.80;;;;;;;;;;5115431;28;20459;-76
2022/03/05 04:32:15;;;;;;;20.07;11.27;;;;;;;;;;5115479;28;20471;-76
2022/03/05 04:34:41;;;;;;;16.57;11.83;;;;;;;;;;5115469;28;20414;-76
2022/03/05 04:37:07;;;;;;;15.87;12.50;;;;;;;;;;5115384;28;20416;-75
2022/03/05 04:39:33;;;;;;;14.37;10.00;;;;;;;;;;5115345;28;20898;-75
2022/03/05 04:41:59;;;;;;;18.03;12.10;;;;;;;;;;5115450;28;20932;-76
2022/03/05 04:44:25;;;;;;;14.57;11.13;;;;;;;;;;5115519;28;20404;-76
2022/03/05 04:46:51;;;;;;;17.30;11.03;;;;;;;;;;5115020;28;20769;-76
2022/03/05 04:49:17;;;;;;;16.40;11.30;;;;;;;;;;5115659;28;20483;-76
2022/03/05 04:51:43;;;;;;;17.67;11.40;;;;;;;;;;5115290;28;20502;-76
2022/03/05 04:54:09;;;;;;;18.57;11.80;;;;;;;;;;5115329;28;20417;-76
2022/03/05 04:56:35;;;;;;;20.13;11.13;;;;;;;;;;5115022;28;20461;-76
2022/03/05 04:59:02;;;;;;;19.23;12.30;;;;;;;;;;5114893;28;20395;-76
2022/03/05 05:01:28;;;;;;;14.47;10.50;;;;;;;;;;5114806;28;20412;-76
2022/03/05 05:03:54;;;;;;;21.53;11.00;;;;;;;;;;5115109;28;20815;-76
2022/03/05 05:06:20;;;;;;;17.37;10.50;;;;;;;;;;5115442;28;20893;-76
2022/03/05 05:08:46;;;;;;;30.27;12.90;;;;;;;;;;5114770;28;20793;-76
2022/03/05 05:11:12;;;;;;;19.53;11.87;;;;;;;;;;5115024;28;20420;-76
2022/03/05 05:13:39;;;;;;;19.93;12.17;;;;;;;;;;5114869;28;20427;-76
2022/03/05 05:16:05;;;;;;;21.10;10.50;;;;;;;;;;5114957;28;20494;-76
2022/03/05 05:18:33;;;;;;;16.60;10.47;;;;;;;;;;5114594;28;20431;-76
2022/03/05 05:20:59;;;;;;;13.90;10.77;;;;;;;;;;5115090;28;20443;-76
2022/03/05 05:23:24;;;;;;;16.23;11.43;;;;;;;;;;5114424;28;20477;-76
2022/03/05 05:25:50;;;;;;;15.90;10.03;;;;;;;;;;5114690;28;20400;-76
2022/03/05 05:28:16;;;;;;;14.33;10.97;;;;;;;;;;5114644;28;20423;-76
2022/03/05 05:30:42;;;;;;;16.40;11.27;;;;;;;;;;5114523;28;20473;-76
2022/03/05 05:33:08;;;;;;;14.70;10.83;;;;;;;;;;5114318;28;20404;-76
2022/03/05 05:35:34;;;;;;;18.00;10.67;;;;;;;;;;5114287;28;20430;-75
2022/03/05 05:38:00;;;;;;;14.60;11.10;;;;;;;;;;5113847;28;20418;-76
2022/03/05 05:40:26;;;;;;;13.10;10.17;;;;;;;;;;5114469;28;20412;-76
2022/03/05 05:42:53;;;;;;;14.33;10.10;;;;;;;;;;5114142;28;20947;-76
2022/03/05 05:45:20;;;;;;;13.77;10.20;;;;;;;;;;5114309;28;20533;-76
2022/03/05 05:47:46;;;;;;;26.07;10.67;;;;;;;;;;5113967;28;20965;-76
2022/03/05 05:50:12;;;;;;;15.90;11.43;;;;;;;;;;5113968;28;20570;-76
2022/03/05 05:52:39;;;;;;;21.67;13.20;;;;;;;;;;5113852;28;20435;-76
2022/03/05 05:55:05;;;;;;;18.40;12.57;;;;;;;;;;5114214;28;20419;-76
2022/03/05 05:57:31;;;;;;;24.50;13.93;;;;;;;;;;5114901;28;20408;-75
2022/03/05 05:59:57;;;;;;;16.23;12.23;;;;;;;;;;5113923;28;20418;-76
2022/03/05 06:02:23;;;;;;;19.20;12.50;;;;;;;;;;5113731;28;20400;-76
2022/03/05 06:04:49;;;;;;;15.47;12.00;;;;;;;;;;5113873;28;20976;-76
2022/03/05 06:07:15;;;;;;;22.00;11.83;;;;;;;;;;5114197;28;20541;-75
2022/03/05 06:09:41;;;;;;;20.20;12.70;;;;;;;;;;5113557;28;20439;-76
2022/03/05 06:12:07;;;;;;;17.23;11.97;;;;;;;;;;5113875;28;20253;-76
2022/03/05 06:14:33;;;;;;;17.17;11.77;;;;;;;;;;5114007;28;20749;-76
2022/03/05 06:16:59;;;;;;;17.67;10.77;;;;;;;;;;5113764;28;20507;-76
2022/03/05 06:19:25;;;;;;;22.13;12.27;;;;;;;;;;5113530;28;20427;-75
2022/03/05 06:21:51;;;;;;;19.70;11.50;;;;;;;;;;5113654;28;20465;-75
2022/03/05 06:24:17;;;;;;;12.43;10.13;;;;;;;;;;5114020;28;20411;-75
2022/03/05 06:26:44;;;;;;;18.83;11.50;;;;;;;;;;5113313;28;20404;-75
2022/03/05 06:29:10;;;;;;;24.63;13.90;;;;;;;;;;5113365;28;20625;-75
2022/03/05 06:31:36;;;;;;;19.27;11.87;;;;;;;;;;5113565;28;20411;-75
2022/03/05 06:34:02;;;;;;;23.70;12.40;;;;;;;;;;5113386;28;20403;-75
2022/03/05 06:36:28;;;;;;;16.57;11.67;;;;;;;;;;5113184;28;20415;-75
2022/03/05 06:38:54;;;;;;;14.90;12.07;;;;;;;;;;5113251;28;20414;-75
2022/03/05 06:41:20;;;;;;;27.37;12.93;;;;;;;;;;5113358;28;20426;-75
2022/03/05 06:43:46;;;;;;;27.83;14.60;;;;;;;;;;5113236;28;20408;-75
2022/03/05 06:46:13;;;;;;;23.80;13.87;;;;;;;;;;5113397;28;20420;-75
2022/03/05 06:48:39;;;;;;;25.13;13.30;;;;;;;;;;5114107;28;20467;-75
2022/03/05 06:51:05;;;;;;;26.13;14.47;;;;;;;;;;5117736;28;21005;-76
2022/03/05 06:53:31;;;;;;;24.97;14.80;;;;;;;;;;5117270;28;21091;-75
2022/03/05 06:55:57;;;;;;;18.80;12.27;;;;;;;;;;5118413;28;20509;-76
2022/03/05 06:58:22;;;;;;;20.97;12.60;;;;;;;;;;5117510;28;20503;-75
2022/03/05 07:00:48;;;;;;;26.20;13.60;;;;;;;;;;5117148;28;20411;-75
2022/03/05 07:03:14;;;;;;;22.93;12.53;;;;;;;;;;5117203;28;20421;-75
2022/03/05 07:05:40;;;;;;;24.57;13.47;;;;;;;;;;5117400;28;20428;-75
2022/03/05 07:08:07;;;;;;;19.27;13.40;;;;;;;;;;5117584;28;20415;-76
2022/03/05 07:10:33;;;;;;;22.47;13.13;;;;;;;;;;5117033;28;20503;-75
2022/03/05 07:12:59;;;;;;;19.80;11.47;;;;;;;;;;5116989;28;20418;-75
2022/03/05 07:15:25;;;;;;;16.83;11.50;;;;;;;;;;5116978;28;20419;-76
2022/03/05 07:17:51;;;;;;;19.47;12.70;;;;;;;;;;5098547;28;20423;-76
2022/03/05 07:20:18;;;;;;;20.70;11.60;;;;;;;;;;5116981;28;20462;-76
2022/03/05 07:22:44;;;;;;;21.53;11.63;;;;;;;;;;5098530;28;20434;-76
2022/03/05 07:25:11;;;;;;;16.90;10.60;;;;;;;;;;5116705;28;20423;-76
2022/03/05 07:27:37;;;;;;;18.87;10.73;;;;;;;;;;5116991;28;20777;-76
2022/03/05 07:30:03;;;;;;;15.87;10.90;;;;;;;;;;5117193;28;20979;-76
2022/03/05 07:32:29;;;;;;;14.07;9.63;;;;;;;;;;5116677;28;20410;-75
2022/03/05 07:34:55;;;;;;;16.90;10.17;;;;;;;;;;5116894;28;20412;-76
2022/03/05 07:37:21;;;;;;;19.70;10.40;;;;;;;;;;5116489;28;20920;-76
2022/03/05 07:39:47;;;;;;;18.13;10.23;;;;;;;;;;5116621;28;20847;-75
2022/03/05 07:42:13;;;;;;;16.40;11.57;;;;;;;;;;5116290;28;20399;-76
2022/03/05 07:44:39;;;;;;;15.50;10.93;;;;;;;;;;5116436;28;20419;-76
2022/03/05 07:47:05;;;;;;;16.27;10.63;;;;;;;;;;5116170;28;20451;-76
2022/03/05 07:49:31;;;;;;;14.57;9.20;;;;;;;;;;5116326;28;20459;-77
2022/03/05 07:51:57;;;;;;;20.30;9.63;;;;;;;;;;5116352;28;20431;-76
2022/03/05 07:54:24;;;;;;;15.13;8.80;;;;;;;;;;5115934;28;20412;-76
2022/03/05 07:56:50;;;;;;;15.00;8.43;;;;;;;;;;5116268;28;20430;-76
2022/03/05 07:59:16;;;;;;;16.00;9.23;;;;;;;;;;5116369;28;20412;-76
2022/03/05 08:01:42;;;;;;;16.83;9.53;;;;;;;;;;5115397;28;20420;-76
2022/03/05 08:04:08;;;;;;;15.53;10.27;;;;;;;;;;5116254;28;20919;-76
2022/03/05 08:06:34;;;;;;;13.97;10.03;;;;;;;;;;5115920;28;20411;-76
2022/03/05 08:09:00;;;;;;;18.07;9.50;;;;;;;;;;5115737;28;20419;-76
2022/03/05 08:11:26;;;;;;;13.27;8.63;;;;;;;;;;5115863;28;20416;-76
2022/03/05 08:13:52;;;;;;;14.53;9.00;;;;;;;;;;5115819;28;20901;-76
2022/03/05 08:16:18;;;;;;;14.70;9.77;;;;;;;;;;5115823;28;20506;-76
2022/03/05 08:18:44;;;;;;;11.93;9.50;;;;;;;;;;5115647;28;20808;-76
2022/03/05 08:21:10;;;;;;;11.63;9.67;;;;;;;;;;5116134;28;20412;-75
2022/03/05 08:23:36;;;;;;;15.30;10.30;;;;;;;;;;5115613;28;20411;-76
2022/03/05 08:26:02;;;;;;;19.43;8.70;;;;;;;;;;5115865;28;20503;-76
2022/03/05 08:28:29;;;;;;;13.87;10.20;;;;;;;;;;5115745;28;20411;-75
2022/03/05 08:30:54;;;;;;;19.27;10.50;;;;;;;;;;5115396;28;20467;-76
2022/03/05 08:33:21;;;;;;;13.17;9.30;;;;;;;;;;5115488;28;20418;-76
2022/03/05 08:35:48;;;;;;;15.93;10.10;;;;;;;;;;5097128;28;20925;-76
2022/03/05 08:38:14;;;;;;;14.03;9.37;;;;;;;;;;5115406;28;20759;-76
2022/03/05 08:40:40;;;;;;;11.70;8.50;;;;;;;;;;5096920;28;20461;-76
2022/03/05 08:46:10;;;;;;;13.43;9.53;;;;;;;;;;5115333;28;20484;-75
2022/03/05 08:48:36;;;;;;;12.70;8.13;;;;;;;;;;5114986;28;20471;-76
2022/03/05 08:51:03;;;;;;;14.90;10.00;;;;;;;;;;5115244;28;20473;-76
2022/03/05 08:53:29;;;;;;;12.03;8.80;;;;;;;;;;5115615;28;20412;-75
2022/03/05 08:55:55;;;;;;;15.13;10.00;;;;;;;;;;5114969;28;20403;-76
2022/03/05 08:58:21;;;;;;;13.70;9.10;;;;;;;;;;5115121;28;20465;-76
2022/03/05 09:00:47;;;;;;;17.70;9.00;;;;;;;;;;5096548;28;20435;-76
2022/03/05 09:03:13;;;;;;;14.80;9.47;;;;;;;;;;5115178;28;20419;-76
2022/03/05 09:05:40;;;;;;;11.37;8.40;;;;;;;;;;5115567;28;20407;-75
2022/03/05 09:08:06;;;;;;;10.20;7.73;;;;;;;;;;5114773;28;20941;-76
2022/03/05 09:10:32;;;;;;;13.83;9.27;;;;;;;;;;5114642;28;20505;-76
2022/03/05 09:12:59;;;;;;;13.20;9.50;;;;;;;;;;5113898;28;20185;-77
2022/03/05 09:15:25;;;;;;;9.73;8.53;;;;;;;;;;5114680;28;20905;-76
2022/03/05 09:17:51;;;;;;;10.37;7.63;;;;;;;;;;5114864;28;20504;-74
2022/03/05 09:20:17;;;;;;;12.30;8.70;;;;;;;;;;5114451;28;20894;-75
2022/03/05 09:25:47;;;;;;;10.60;8.63;;;;;;;;;;5114283;28;20387;-76
2022/03/05 09:28:12;;;;;;;11.90;7.83;;;;;;;;;;5114090;28;20428;-76
2022/03/05 09:30:39;;;;;;;16.53;7.40;;;;;;;;;;5114934;28;20559;-76
2022/03/05 09:33:05;;;;;;;14.40;9.20;;;;;;;;;;5114031;28;20461;-76
2022/03/05 09:35:30;;;;;;;11.60;8.17;;;;;;;;;;5113780;28;20802;-76
2022/03/05 09:37:56;;;;;;;15.97;8.87;;;;;;;;;;5113952;28;20564;-76
2022/03/05 09:40:23;;;;;;;10.13;8.50;;;;;;;;;;5114275;28;20420;-76
2022/03/05 09:42:49;;;;;;;13.03;8.30;;;;;;;;;;5114665;28;20427;-76
2022/03/05 09:45:15;;;;;;;9.43;7.80;;;;;;;;;;5114219;28;20408;-75
2022/03/05 09:47:42;;;;;;;15.10;9.03;;;;;;;;;;5113973;28;21018;-75
2022/03/05 09:50:09;;;;;;;10.10;8.40;;;;;;;;;;5095345;28;20555;-74
2022/03/05 09:52:34;;;;;;;11.87;8.43;;;;;;;;;;5114143;28;20492;-73
2022/03/05 09:55:01;;;;;;;10.40;8.20;;;;;;;;;;5113894;28;20912;-76
2022/03/05 09:57:27;;;;;;;11.57;7.93;;;;;;;;;;5113895;28;20424;-74
2022/03/05 09:59:53;;;;;;;14.70;8.97;;;;;;;;;;5113666;28;20427;-73
2022/03/05 10:02:19;;;;;;;15.53;10.20;;;;;;;;;;5113309;28;20567;-74
2022/03/05 10:04:46;;;;;;;11.03;9.17;;;;;;;;;;5113715;28;20419;-74
2022/03/05 10:07:20;;;;;;;11.80;8.37;;;;;;;;;;5113756;28;20431;-74
2022/03/05 10:09:47;;;;;;;13.23;8.90;;;;;;;;;;5113363;28;20463;-74
2022/03/05 10:12:28;;;;;;;11.70;9.17;;;;;;;;;;5113650;28;20503;-74
2022/03/05 10:15:07;;;;;;;13.43;8.33;;;;;;;;;;5114103;28;20416;-74
2022/03/05 10:17:51;;;;;;;15.27;9.43;;;;;;;;;;5113456;28;20525;-74
2022/03/05 10:20:17;;;;;;;13.50;8.53;;;;;;;;;;5113152;28;20908;-74
2022/03/05 10:22:54;;;;;;;11.57;8.27;;;;;;;;;;5113593;28;20411;-74
2022/03/05 10:25:28;;;;;;;9.50;8.17;;;;;;;;;;5112991;28;20449;-74
2022/03/05 10:28:00;;;;;;;9.27;8.03;;;;;;;;;;5113401;28;20951;-74
2022/03/05 10:30:33;;;;;;;10.13;7.30;;;;;;;;;;5113394;28;20979;-74
2022/03/05 10:36:07;;;;;;;5.57;4.97;;;;;;;;;;5113236;28;20429;-74
2022/03/05 10:39:06;;;;;;;6.80;6.20;;;;;;;;;;5113169;28;20420;-74
2022/03/05 10:41:32;;;;;;;5.03;4.63;;;;;;;;;;5058492;28;20434;-74
2022/03/05 10:44:06;;;;;;;9.13;6.80;;;;;;;;;;5113110;28;20582;-73
2022/03/05 10:46:38;;;;;;;7.33;5.27;;;;;;;;;;5113716;28;20411;-75
2022/03/05 10:49:07;;;;;;;4.43;4.03;;;;;;;;;;5112647;28;20842;-74
2022/03/05 10:51:34;;;;;;;4.20;3.90;;;;;;;;;;5112891;28;20913;-74
2022/03/05 10:54:00;;;;;;;3.97;3.77;;;;;;;;;;5112732;28;20798;-73
2022/03/05 10:56:33;;;;;;;3.57;3.30;;;;;;;;;;5113071;28;20473;-74
2022/03/05 10:59:04;;;;;;;3.40;3.00;;;;;;;;;;5112675;28;20944;-73
2022/03/05 11:01:30;;;;;;;6.63;3.00;;;;;;;;;;5112789;28;20475;-72
2022/03/05 11:03:57;;;;;;;3.27;3.17;;;;;;;;;;5095235;28;20424;-73
2022/03/05 11:06:23;;;;;;;3.83;3.43;;;;;;;;;;5112779;28;20428;-73
2022/03/05 11:08:50;;;;;;;3.30;3.20;;;;;;;;;;5112716;28;20420;-73
2022/03/05 11:11:17;;;;;;;4.00;3.67;;;;;;;;;;5112780;28;20971;-74
2022/03/05 11:13:43;;;;;;;4.67;3.27;;;;;;;;;;5112848;28;20482;-72
2022/03/05 11:16:09;;;;;;;10.50;3.83;;;;;;;;;;5113208;28;20419;-71
2022/03/05 11:18:39;;;;;;;3.17;2.97;;;;;;;;;;5112783;28;20430;-72
2022/03/05 11:21:06;;;;;;;3.30;3.10;;;;;;;;;;5113259;28;20419;-72
2022/03/05 11:23:32;;;;;;;3.83;3.03;;;;;;;;;;5112466;28;20419;-71
2022/03/05 11:25:59;;;;;;;4.73;3.33;;;;;;;;;;5113029;28;20494;-72
2022/03/05 11:28:34;;;;;;;3.40;3.20;;;;;;;;;;5112609;28;20420;-72
2022/03/05 11:31:00;;;;;;;4.30;4.10;;;;;;;;;;5113275;28;20455;-74
2022/03/05 11:33:38;;;;;;;4.87;3.30;;;;;;;;;;5112951;28;20465;-73
2022/03/05 11:36:07;;;;;;;3.63;3.33;;;;;;;;;;5114408;28;20873;-73
2022/03/05 11:38:36;;;;;;;6.23;4.50;;;;;;;;;;5115908;28;20840;-73
2022/03/05 11:41:06;;;;;;;6.03;4.50;;;;;;;;;;5116453;28;20416;-74
2022/03/05 11:43:41;;;;;;;4.30;4.03;;;;;;;;;;5116523;28;20416;-73
2022/03/05 11:46:07;;;;;;;5.10;3.20;;;;;;;;;;5116003;28;20752;-74
2022/03/05 11:48:38;;;;;;;8.07;4.97;;;;;;;;;;5115959;28;20467;-74
2022/03/05 11:51:16;;;;;;;4.00;3.70;;;;;;;;;;5116384;28;20502;-74
2022/03/05 11:53:42;;;;;;;6.93;4.77;;;;;;;;;;5116503;28;20403;-74
2022/03/05 11:56:24;;;;;;;6.70;6.10;;;;;;;;;;5116334;28;20422;-75
2022/03/05 11:58:50;;;;;;;9.57;4.97;;;;;;;;;;5115949;28;20763;-74
2022/03/05 12:01:36;;;;;;;5.50;5.00;;;;;;;;;;5116351;28;20411;-75
2022/03/05 12:04:22;;;;;;;5.10;4.70;;;;;;;;;;5097818;28;20433;-73
2022/03/05 12:06:51;;;;;;;4.80;4.30;;;;;;;;;;5115827;28;20502;-75
2022/03/05 12:09:35;;;;;;;5.97;5.47;;;;;;;;;;5115760;28;20811;-75
2022/03/05 12:12:02;;;;;;;6.07;5.50;;;;;;;;;;5115744;28;20412;-77
2022/03/05 12:14:47;;;;;;;10.13;6.90;;;;;;;;;;5115838;28;20515;-75
2022/03/05 12:17:13;;;;;;;9.47;6.27;;;;;;;;;;5116032;28;20407;-70
2022/03/05 12:19:46;;;;;;;5.93;5.43;;;;;;;;;;5115881;28;20806;-75
2022/03/05 12:22:15;;;;;;;10.57;5.80;;;;;;;;;;5115635;28;20436;-75
2022/03/05 12:24:41;;;;;;;7.63;5.70;;;;;;;;;;5115991;28;20407;-76
2022/03/05 12:27:11;;;;;;;9.77;6.97;;;;;;;;;;5115711;28;20480;-76
2022/03/05 12:29:37;;;;;;;9.17;5.50;;;;;;;;;;5115376;28;20470;-76
2022/03/05 12:32:03;;;;;;;6.20;5.70;;;;;;;;;;5115954;28;20415;-76
2022/03/05 12:34:35;;;;;;;6.17;5.60;;;;;;;;;;5115555;28;20798;-76
2022/03/05 12:37:01;;;;;;;8.97;7.37;;;;;;;;;;5115745;28;20404;-76
2022/03/05 12:39:27;;;;;;;8.93;6.33;;;;;;;;;;5115721;28;20817;-76
2022/03/05 12:41:54;;;;;;;8.40;7.53;;;;;;;;;;5116059;28;20416;-76
2022/03/05 12:44:20;;;;;;;8.13;7.07;;;;;;;;;;5115305;28;20412;-76
2022/03/05 12:46:46;;;;;;;8.17;6.73;;;;;;;;;;5115176;28;20419;-76
2022/03/05 12:49:12;;;;;;;19.43;7.30;;;;;;;;;;5115479;28;20617;-76
2022/03/05 12:51:38;;;;;;;8.60;7.00;;;;;;;;;;5115717;28;20424;-76
2022/03/05 12:54:05;;;;;;;7.13;6.43;;;;;;;;;;5115423;28;20412;-76
2022/03/05 12:56:31;;;;;;;9.90;7.23;;;;;;;;;;5115304;28;20403;-76
2022/03/05 12:58:58;;;;;;;7.00;6.40;;;;;;;;;;5115251;28;20411;-76
2022/03/05 13:01:26;;;;;;;8.90;7.90;;;;;;;;;;5096723;28;20420;-76
2022/03/05 13:03:54;;;;;;;13.40;5.90;;;;;;;;;;5115275;28;20415;-77
2022/03/05 13:06:20;;;;;;;9.00;8.10;;;;;;;;;;5114986;28;20427;-76
2022/03/05 13:08:46;;;;;;;7.87;5.87;;;;;;;;;;5115076;28;20419;-76
2022/03/05 13:11:16;;;;;;;6.60;5.93;;;;;;;;;;5115052;28;20556;-76
2022/03/05 13:13:43;;;;;;;7.73;6.77;;;;;;;;;;5115294;28;20432;-76
2022/03/05 13:16:10;;;;;;;7.20;5.80;;;;;;;;;;5115000;28;20419;-76
2022/03/05 13:18:36;;;;;;;7.67;6.53;;;;;;;;;;5114962;28;20873;-76
2022/03/05 13:21:04;;;;;;;12.00;9.63;;;;;;;;;;5114595;28;20420;-76
2022/03/05 13:23:30;;;;;;;9.37;8.17;;;;;;;;;;5115190;28;20881;-76
2022/03/05 13:25:57;;;;;;;7.30;6.70;;;;;;;;;;5114560;28;20427;-76
2022/03/05 13:28:25;;;;;;;9.90;5.63;;;;;;;;;;5114363;28;20414;-76
2022/03/05 13:30:53;;;;;;;13.90;7.53;;;;;;;;;;5114410;28;20482;-76
2022/03/05 13:33:37;;;;;;;8.47;7.00;;;;;;;;;;5114711;28;20851;-76
2022/03/05 13:36:22;;;;;;;7.63;6.60;;;;;;;;;;5114634;28;20757;-76
2022/03/05 13:38:49;;;;;;;10.10;7.27;;;;;;;;;;5114565;28;20407;-76
2022/03/05 13:41:24;;;;;;;10.27;6.60;;;;;;;;;;5114480;28;20756;-76
2022/03/05 13:43:50;;;;;;;8.87;7.83;;;;;;;;;;5114589;28;20450;-76
2022/03/05 13:46:18;;;;;;;12.70;8.20;;;;;;;;;;5114436;28;20427;-76
2022/03/05 13:48:54;;;;;;;7.43;6.63;;;;;;;;;;5113910;28;20474;-76
2022/03/05 13:51:22;;;;;;;8.13;7.43;;;;;;;;;;5114225;28;20642;-76
2022/03/05 13:53:50;;;;;;;7.23;6.60;;;;;;;;;;5114047;28;20750;-76
2022/03/05 13:56:16;;;;;;;6.20;5.80;;;;;;;;;;5113986;28;20407;-76
2022/03/05 13:58:42;;;;;;;7.23;6.53;;;;;;;;;;5113927;28;20408;-76
2022/03/05 14:01:34;;;;;;;9.43;6.93;;;;;;;;;;5113850;28;20909;-76
2022/03/05 14:04:06;;;;;;;11.13;7.03;;;;;;;;;;5109509;28;20925;-76
2022/03/05 14:06:32;;;;;;;10.53;7.90;;;;;;;;;;5114035;28;20417;-76
2022/03/05 14:09:01;;;;;;;6.67;6.07;;;;;;;;;;5114055;28;20411;-76
2022/03/05 14:11:28;;;;;;;7.67;6.97;;;;;;;;;;5113896;28;20486;-76
2022/03/05 14:13:54;;;;;;;9.97;6.93;;;;;;;;;;5113647;28;20415;-76
2022/03/05 14:16:39;;;;;;;10.30;6.60;;;;;;;;;;5113898;28;20424;-76
2022/03/05 14:19:05;;;;;;;9.30;7.57;;;;;;;;;;5113641;28;20418;-76
2022/03/05 14:21:31;;;;;;;8.87;6.80;;;;;;;;;;5113766;28;20468;-76
2022/03/05 14:24:06;;;;;;;8.63;7.70;;;;;;;;;;5113505;28;20419;-74
2022/03/05 14:26:35;;;;;;;7.07;5.80;;;;;;;;;;5113484;28;20400;-74
2022/03/05 14:29:01;;;;;;;10.63;6.50;;;;;;;;;;5113389;28;20814;-74
2022/03/05 14:31:27;;;;;;;9.70;6.63;;;;;;;;;;5113918;28;20575;-74
2022/03/05 14:33:53;;;;;;;11.23;6.17;;;;;;;;;;5113775;28;20403;-74
2022/03/05 14:36:19;;;;;;;11.53;7.80;;;;;;;;;;5113438;28;20514;-74
2022/03/05 14:38:45;;;;;;;10.93;5.27;;;;;;;;;;5113653;28;20961;-74
2022/03/05 14:41:11;;;;;;;7.20;6.20;;;;;;;;;;5113297;28;20416;-74